createdAt,value
2022-09-17T00:01:48.220Z,94.72
2022-09-17T00:04:50.215Z,94.70
2022-09-17T00:07:52.352Z,94.74
2022-09-17T00:10:54.221Z,95.18
2022-09-17T00:13:58.716Z,95.49
2022-09-17T00:17:02.047Z,95.39
2022-09-17T00:20:05.467Z,95.56
2022-09-17T00:23:08.238Z,95.26
2022-09-17T00:26:10.073Z,95.55
2022-09-17T00:29:12.126Z,95.50
2022-09-17T00:32:13.918Z,95.60
2022-09-17T00:35:15.865Z,95.44
2022-09-17T00:38:17.594Z,95.46
2022-09-17T00:41:20.592Z,95.80
2022-09-17T00:44:42.882Z,95.70
2022-09-17T00:48:01.137Z,95.59
2022-09-17T00:51:04.563Z,96.18
2022-09-17T00:54:08.430Z,96.11
2022-09-17T00:57:10.330Z,95.91
2022-09-17T01:00:14.915Z,95.85
2022-09-17T01:03:17.338Z,95.83
2022-09-17T01:06:54.125Z,95.69
2022-09-17T01:10:01.397Z,96.07
2022-09-17T01:13:18.518Z,96.40
2022-09-17T01:16:42.463Z,96.41
2022-09-17T01:20:17.861Z,96.57
2022-09-17T01:23:30.714Z,96.84
2022-09-17T01:27:03.649Z,97.60
2022-09-17T01:30:32.662Z,97.73
2022-09-17T01:33:38.301Z,97.85
2022-09-17T01:37:04.145Z,97.76
2022-09-17T01:40:20.259Z,97.54
2022-09-17T01:43:30.537Z,96.97
2022-09-17T01:46:37.095Z,96.74
2022-09-17T01:49:40.294Z,96.69
2022-09-17T01:52:44.689Z,96.98
2022-09-17T01:55:46.841Z,97.32
2022-09-17T01:58:53.882Z,97.91
2022-09-17T02:02:02.162Z,97.55
2022-09-17T02:05:16.974Z,97.22
2022-09-17T02:08:24.396Z,96.42
2022-09-17T02:11:26.335Z,95.86
2022-09-17T02:14:33.706Z,95.95
2022-09-17T02:17:40.529Z,96.03
2022-09-17T02:20:46.786Z,96.14
2022-09-17T02:24:04.226Z,96.09
2022-09-17T02:27:32.741Z,96.19
2022-09-17T02:30:34.679Z,96.78
2022-09-17T02:33:38.231Z,96.92
2022-09-17T02:36:40.300Z,96.96
2022-09-17T02:39:42.617Z,96.81
2022-09-17T02:43:06.458Z,96.77
2022-09-17T02:46:37.457Z,97.41
2022-09-17T02:49:50.257Z,98.02
2022-09-17T02:53:02.137Z,98.28
2022-09-17T02:56:27.259Z,97.93
2022-09-17T02:59:56.059Z,98.06
2022-09-17T03:03:01.158Z,98.76
2022-09-17T03:06:03.066Z,99.03
2022-09-17T03:09:04.861Z,99.17
2022-09-17T03:12:06.813Z,98.90
2022-09-17T03:15:09.098Z,98.80
2022-09-17T03:18:10.986Z,98.85
2022-09-17T03:21:12.856Z,98.97
2022-09-17T03:24:14.655Z,98.68
2022-09-17T03:27:16.519Z,98.86
2022-09-17T03:30:19.051Z,99.03
2022-09-17T03:33:21.081Z,99.54
2022-09-17T03:36:22.875Z,99.78
2022-09-17T03:39:24.718Z,99.42
2022-09-17T03:42:26.565Z,99.66
2022-09-17T03:45:28.333Z,99.79
2022-09-17T03:48:30.548Z,99.58
2022-09-17T03:51:32.699Z,99.54
2022-09-17T03:54:34.479Z,99.08
2022-09-17T03:57:36.339Z,99.18
2022-09-17T04:00:38.274Z,99.45
2022-09-17T04:03:40.130Z,99.44
2022-09-17T04:06:41.894Z,98.95
2022-09-17T04:09:43.790Z,98.86
2022-09-17T04:12:45.707Z,99.03
2022-09-17T04:15:48.148Z,99.47
2022-09-17T04:18:49.959Z,99.64
2022-09-17T04:21:53.118Z,99.55
2022-09-17T04:24:55.154Z,99.43
2022-09-17T04:27:56.926Z,99.29
2022-09-17T04:30:58.969Z,99.46
2022-09-17T04:34:00.745Z,98.98
2022-09-17T04:37:03.827Z,98.22
2022-09-17T04:40:08.040Z,97.39
2022-09-17T04:43:11.058Z,97.11
2022-09-17T04:46:14.372Z,96.95
2022-09-17T04:49:16.273Z,96.67
2022-09-17T04:52:18.304Z,97.07
2022-09-17T04:55:20.233Z,97.05
2022-09-17T04:58:22.111Z,97.10
2022-09-17T05:01:23.976Z,97.31
2022-09-17T05:04:25.958Z,97.28
2022-09-17T05:07:27.830Z,97.72
2022-09-17T05:10:29.609Z,97.92
2022-09-17T05:13:31.376Z,98.11
2022-09-17T05:16:33.565Z,98.41
2022-09-17T05:19:35.469Z,98.73
2022-09-17T05:22:41.993Z,99.25
2022-09-17T05:25:44.062Z,99.61
2022-09-17T05:28:45.918Z,99.58
2022-09-17T05:31:47.827Z,99.33
2022-09-17T05:34:50.319Z,99.19
2022-09-17T05:37:52.145Z,99.57
2022-09-17T05:40:53.950Z,99.89
2022-09-17T05:43:55.693Z,100.00
2022-09-17T05:46:57.547Z,100.00
2022-09-17T05:49:59.862Z,100.00
2022-09-17T05:53:06.279Z,99.96
2022-09-17T05:56:08.293Z,99.97
2022-09-17T05:59:10.143Z,99.86
2022-09-17T06:02:14.948Z,99.77
2022-09-17T06:05:17.484Z,99.78
2022-09-17T06:08:19.264Z,100.00
2022-09-17T06:11:21.099Z,99.89
2022-09-17T06:14:22.793Z,99.91
2022-09-17T06:17:24.491Z,99.71
2022-09-17T06:20:26.318Z,99.71
2022-09-17T06:23:31.484Z,99.91
2022-09-17T06:26:33.355Z,100.00
2022-09-17T06:29:35.115Z,100.00
2022-09-17T06:32:36.875Z,99.91
2022-09-17T06:35:38.625Z,99.96
2022-09-17T06:38:40.572Z,99.58
2022-09-17T06:41:43.436Z,99.73
2022-09-17T06:44:45.226Z,99.93
2022-09-17T06:47:46.963Z,99.97
2022-09-17T06:50:49.223Z,98.84
2022-09-17T06:53:51.087Z,97.97
2022-09-17T06:56:52.809Z,98.09
2022-09-17T06:59:54.762Z,98.02
2022-09-17T07:02:58.249Z,97.76
2022-09-17T07:06:00.214Z,97.79
2022-09-17T07:09:02.863Z,97.70
2022-09-17T07:12:08.395Z,97.31
2022-09-17T07:15:11.558Z,96.41
2022-09-17T07:18:13.430Z,96.36
2022-09-17T07:21:15.124Z,96.38
2022-09-17T07:24:16.956Z,96.83
2022-09-17T07:27:18.763Z,97.35
2022-09-17T07:30:21.047Z,97.32
2022-09-17T07:33:25.619Z,96.86
2022-09-17T07:36:27.946Z,96.84
2022-09-17T07:39:29.690Z,95.67
2022-09-17T07:42:33.149Z,95.29
2022-09-17T07:45:35.035Z,95.45
2022-09-17T07:48:36.918Z,95.50
2022-09-17T07:51:40.441Z,95.36
2022-09-17T07:54:42.642Z,94.35
2022-09-17T07:57:44.520Z,94.03
2022-09-17T08:00:46.440Z,94.17
2022-09-17T08:03:53.021Z,93.37
2022-09-17T08:06:54.859Z,92.69
2022-09-17T08:09:57.066Z,92.88
2022-09-17T08:12:59.204Z,91.93
2022-09-17T08:16:02.569Z,91.72
2022-09-17T08:19:04.322Z,91.82
2022-09-17T08:22:06.098Z,92.01
2022-09-17T08:25:09.170Z,91.75
2022-09-17T08:28:11.441Z,91.15
2022-09-17T08:31:14.327Z,91.33
2022-09-17T08:34:16.511Z,91.14
2022-09-17T08:37:18.267Z,91.73
2022-09-17T08:40:22.579Z,92.02
2022-09-17T08:43:25.717Z,92.09
2022-09-17T08:46:28.985Z,91.86
2022-09-17T08:49:37.431Z,92.04
2022-09-17T08:52:54.916Z,90.31
2022-09-17T08:56:11.319Z,90.36
2022-09-17T08:59:28.414Z,90.54
2022-09-17T09:02:44.101Z,90.53
2022-09-17T09:05:52.650Z,89.99
2022-09-17T09:09:04.031Z,89.57
2022-09-17T09:12:26.957Z,88.19
2022-09-17T09:15:33.092Z,88.95
2022-09-17T09:18:37.915Z,90.00
2022-09-17T09:21:45.683Z,89.53
2022-09-17T09:25:13.288Z,87.48
2022-09-17T09:28:23.322Z,85.94
2022-09-17T09:31:39.872Z,85.95
2022-09-17T09:34:41.850Z,84.13
2022-09-17T09:37:50.727Z,84.39
2022-09-17T09:41:00.937Z,84.69
2022-09-17T09:44:10.672Z,86.12
2022-09-17T09:47:27.196Z,86.24
2022-09-17T09:51:01.722Z,85.26
2022-09-17T09:54:37.146Z,84.96
2022-09-17T09:57:47.718Z,84.83
2022-09-17T10:00:49.579Z,83.57
2022-09-17T10:03:52.845Z,84.49
2022-09-17T10:07:20.789Z,85.93
2022-09-17T10:10:23.094Z,86.21
2022-09-17T10:13:25.301Z,86.10
2022-09-17T10:16:29.489Z,83.95
2022-09-17T10:19:31.363Z,81.89
2022-09-17T10:22:44.910Z,81.26
2022-09-17T10:25:47.698Z,81.47
2022-09-17T10:29:11.695Z,80.96
2022-09-17T10:32:18.198Z,81.03
2022-09-17T10:35:19.966Z,77.37
2022-09-17T10:38:37.031Z,77.55
2022-09-17T10:41:56.679Z,79.17
2022-09-17T10:45:01.021Z,78.58
2022-09-17T10:48:02.952Z,76.12
2022-09-17T10:51:06.873Z,73.76
2022-09-17T10:54:14.786Z,74.47
2022-09-17T10:57:36.622Z,76.11
2022-09-17T11:01:09.526Z,77.26
2022-09-17T11:04:25.056Z,77.74
2022-09-17T11:07:47.264Z,77.47
2022-09-17T11:10:59.939Z,76.90
2022-09-17T11:14:41.563Z,77.82
2022-09-17T11:18:04.890Z,77.46
2022-09-17T11:21:14.449Z,76.11
2022-09-17T11:24:26.034Z,76.73
2022-09-17T11:27:48.738Z,76.17
2022-09-17T11:31:24.229Z,75.41
2022-09-17T11:34:53.954Z,75.54
2022-09-17T11:38:11.199Z,76.50
2022-09-17T11:41:14.600Z,76.87
2022-09-17T11:44:33.357Z,76.90
2022-09-17T11:47:39.314Z,76.52
2022-09-17T11:50:46.814Z,77.46
2022-09-17T11:54:03.730Z,74.79
2022-09-17T11:57:35.761Z,75.58
2022-09-17T12:00:43.261Z,76.06
2022-09-17T12:04:01.875Z,76.53
2022-09-17T12:07:30.295Z,76.83
2022-09-17T12:10:35.091Z,76.67
2022-09-17T12:13:42.994Z,77.20
2022-09-17T12:16:46.864Z,77.63
2022-09-17T12:19:55.494Z,78.03
2022-09-17T12:22:58.754Z,78.43
2022-09-17T12:26:34.139Z,78.81
2022-09-17T12:29:48.083Z,79.07
2022-09-17T12:33:08.190Z,79.62
2022-09-17T12:36:27.825Z,80.07
2022-09-17T12:39:47.512Z,79.96
2022-09-17T12:43:02.742Z,80.15
2022-09-17T12:46:32.918Z,80.19
2022-09-17T12:49:43.931Z,80.22
2022-09-17T12:52:45.612Z,80.37
2022-09-17T12:55:47.395Z,80.78
2022-09-17T12:59:10.635Z,81.11
2022-09-17T13:02:20.024Z,81.26
2022-09-17T13:05:50.625Z,81.11
2022-09-17T13:09:10.991Z,81.22
2022-09-17T13:12:39.737Z,81.29
2022-09-17T13:16:13.383Z,81.17
2022-09-17T13:19:33.480Z,81.22
2022-09-17T13:22:45.441Z,81.20
2022-09-17T13:25:53.782Z,81.20
2022-09-17T13:28:55.736Z,80.97
2022-09-17T13:31:57.737Z,81.05
2022-09-17T13:35:11.598Z,81.07
2022-09-17T13:38:13.492Z,81.12
2022-09-17T13:41:21.498Z,80.96
2022-09-17T13:44:23.980Z,80.92
2022-09-17T13:47:31.609Z,80.81
2022-09-17T13:50:42.694Z,80.74
2022-09-17T13:53:52.771Z,80.84
2022-09-17T13:57:24.082Z,80.76
2022-09-17T14:01:00.940Z,80.60
2022-09-17T14:04:03.226Z,80.95
2022-09-17T14:07:24.566Z,81.31
2022-09-17T14:10:34.351Z,81.41
2022-09-17T14:13:36.079Z,81.04
2022-09-17T14:16:45.870Z,81.00
2022-09-17T14:19:51.894Z,80.88
2022-09-17T14:23:03.266Z,80.93
2022-09-17T14:26:09.126Z,81.12
2022-09-17T14:29:48.819Z,80.84
2022-09-17T14:33:17.660Z,80.54
2022-09-17T14:36:21.134Z,80.40
2022-09-17T14:39:27.895Z,80.50
2022-09-17T14:42:35.243Z,80.53
2022-09-17T14:45:41.535Z,80.69
2022-09-17T14:48:43.401Z,80.78
2022-09-17T14:51:45.419Z,81.07
2022-09-17T14:54:47.161Z,81.35
2022-09-17T14:57:52.602Z,81.39
2022-09-17T15:00:54.452Z,81.32
2022-09-17T15:04:14.506Z,81.35
2022-09-17T15:07:16.320Z,81.21
2022-09-17T15:10:21.235Z,81.29
2022-09-17T15:13:28.489Z,81.48
2022-09-17T15:16:30.838Z,81.47
2022-09-17T15:19:42.108Z,81.82
2022-09-17T15:22:46.210Z,82.05
2022-09-17T15:25:51.505Z,81.89
2022-09-17T15:28:54.362Z,82.00
2022-09-17T15:31:56.282Z,82.02
2022-09-17T15:35:17.342Z,81.87
2022-09-17T15:38:26.917Z,82.19
2022-09-17T15:41:29.105Z,82.39
2022-09-17T15:44:31.848Z,82.45
2022-09-17T15:47:37.017Z,82.69
2022-09-17T15:50:53.992Z,82.69
2022-09-17T15:54:05.251Z,82.97
2022-09-17T15:57:14.358Z,83.00
2022-09-17T16:00:17.232Z,83.05
2022-09-17T16:03:40.701Z,83.28
2022-09-17T16:06:49.078Z,83.47
2022-09-17T16:09:52.419Z,83.40
2022-09-17T16:12:54.311Z,83.43
2022-09-17T16:15:56.380Z,83.50
2022-09-17T16:18:58.345Z,83.60
2022-09-17T16:22:00.110Z,83.59
2022-09-17T16:25:02.038Z,83.94
2022-09-17T16:28:09.374Z,83.88
2022-09-17T16:31:13.589Z,84.13
2022-09-17T16:34:15.394Z,84.29
2022-09-17T16:37:17.246Z,84.22
2022-09-17T16:40:20.020Z,84.24
2022-09-17T16:43:22.186Z,84.53
2022-09-17T16:46:24.049Z,84.52
2022-09-17T16:49:25.918Z,84.76
2022-09-17T16:52:27.693Z,84.81
2022-09-17T16:55:29.769Z,84.94
2022-09-17T16:58:31.658Z,85.13
2022-09-17T17:01:33.465Z,85.09
2022-09-17T17:04:35.343Z,85.26
2022-09-17T17:07:37.322Z,85.41
2022-09-17T17:10:39.373Z,85.53
2022-09-17T17:13:44.847Z,85.81
2022-09-17T17:16:46.677Z,85.75
2022-09-17T17:19:48.474Z,85.74
2022-09-17T17:22:53.080Z,85.94
2022-09-17T17:25:54.852Z,85.96
2022-09-17T17:28:56.741Z,86.13
2022-09-17T17:31:58.626Z,86.17
2022-09-17T17:35:00.498Z,86.25
2022-09-17T17:38:02.303Z,86.36
2022-09-17T17:41:06.868Z,86.29
2022-09-17T17:44:12.833Z,86.44
2022-09-17T17:47:14.786Z,86.48
2022-09-17T17:50:16.929Z,86.72
2022-09-17T17:53:18.788Z,86.87
2022-09-17T17:56:20.756Z,86.72
2022-09-17T17:59:22.765Z,87.07
2022-09-17T18:02:24.705Z,87.21
2022-09-17T18:05:26.799Z,87.14
2022-09-17T18:08:28.514Z,87.27
2022-09-17T18:11:30.579Z,87.37
2022-09-17T18:14:32.379Z,87.61
2022-09-17T18:17:36.458Z,87.84
2022-09-17T18:20:38.237Z,87.92
2022-09-17T18:23:41.620Z,88.06
2022-09-17T18:26:43.629Z,88.19
2022-09-17T18:29:45.519Z,88.38
2022-09-17T18:32:50.278Z,88.46
2022-09-17T18:35:57.065Z,88.62
2022-09-17T18:42:27.467Z,88.76
2022-09-17T18:45:29.347Z,88.91
2022-09-17T18:48:36.199Z,89.03
2022-09-17T18:51:38.742Z,89.19
2022-09-17T18:54:40.707Z,89.24
2022-09-17T18:57:42.634Z,89.42
2022-09-17T19:00:45.507Z,89.37
2022-09-17T19:03:47.519Z,89.67
2022-09-17T19:06:49.482Z,89.78
2022-09-17T19:09:51.230Z,89.86
2022-09-17T19:12:54.263Z,89.80
2022-09-17T19:15:59.743Z,89.83
2022-09-17T19:19:01.730Z,89.80
2022-09-17T19:22:03.860Z,89.82
2022-09-17T19:25:06.269Z,89.87
2022-09-17T19:28:08.571Z,89.94
2022-09-17T19:31:12.920Z,89.98
2022-09-17T19:34:14.898Z,89.98
2022-09-17T19:37:18.329Z,90.01
2022-09-17T19:40:20.492Z,90.21
2022-09-17T19:43:22.296Z,90.27
2022-09-17T19:46:25.594Z,90.53
2022-09-17T19:49:27.403Z,90.53
2022-09-17T19:52:29.155Z,90.66
2022-09-17T19:55:31.061Z,90.64
2022-09-17T19:58:32.738Z,90.68
2022-09-17T20:01:35.337Z,90.79
2022-09-17T20:04:37.280Z,90.93
2022-09-17T20:07:39.155Z,90.93
2022-09-17T20:10:40.937Z,91.01
2022-09-17T20:13:43.055Z,91.15
2022-09-17T20:16:45.276Z,91.13
2022-09-17T20:19:46.998Z,91.24
2022-09-17T20:22:51.710Z,91.16
2022-09-17T20:25:54.110Z,91.30
2022-09-17T20:28:56.493Z,91.34
2022-09-17T20:31:58.218Z,91.64
2022-09-17T20:35:00.148Z,91.66
2022-09-17T20:39:06.569Z,91.74
2022-09-17T20:41:24.926Z,91.98
2022-09-17T20:44:26.802Z,91.92
2022-09-17T20:47:28.580Z,92.14
2022-09-17T20:50:30.354Z,92.30
2022-09-17T20:53:34.075Z,92.46
2022-09-17T20:56:36.100Z,92.44
2022-09-17T21:00:04.117Z,92.55
2022-09-17T21:03:05.971Z,92.89
2022-09-17T21:06:07.930Z,93.00
2022-09-17T21:09:12.477Z,93.18
2022-09-17T21:12:14.234Z,93.27
2022-09-17T21:15:16.055Z,93.17
2022-09-17T21:18:17.819Z,93.35
2022-09-17T21:21:19.817Z,93.43
2022-09-17T21:24:21.798Z,93.37
2022-09-17T21:27:23.623Z,93.35
2022-09-17T21:30:25.894Z,93.35
2022-09-17T21:33:27.706Z,93.39
2022-09-17T21:36:32.219Z,93.29
2022-09-17T21:39:35.786Z,93.34
2022-09-17T21:42:38.957Z,93.33
2022-09-17T21:45:40.899Z,93.28
2022-09-17T21:48:47.847Z,93.33
2022-09-17T21:51:49.835Z,93.20
2022-09-17T21:54:51.748Z,93.17
2022-09-17T21:57:53.476Z,93.14
2022-09-17T22:00:55.199Z,93.17
2022-09-17T22:03:57.933Z,93.09
2022-09-17T22:07:00.669Z,93.16
2022-09-17T22:10:02.480Z,93.15
2022-09-17T22:13:04.751Z,93.29
2022-09-17T22:16:09.145Z,93.02
2022-09-17T22:19:13.875Z,93.15
2022-09-17T22:22:15.715Z,92.93
2022-09-17T22:25:17.531Z,92.93
2022-09-17T22:28:21.636Z,93.04
2022-09-17T22:31:23.845Z,92.97
2022-09-17T22:34:26.642Z,92.77
2022-09-17T22:37:29.207Z,92.81
2022-09-17T22:40:31.068Z,92.78
2022-09-17T22:43:33.186Z,92.94
2022-09-17T22:46:39.521Z,92.79
2022-09-17T22:49:41.623Z,92.83
2022-09-17T22:52:43.318Z,92.86
2022-09-17T22:55:54.866Z,92.88
2022-09-17T22:58:57.993Z,92.97
2022-09-17T23:01:59.786Z,92.81
2022-09-17T23:05:21.411Z,92.72
2022-09-17T23:08:38.033Z,92.62
2022-09-17T23:11:40.159Z,92.66
2022-09-17T23:14:41.930Z,92.76
2022-09-17T23:17:43.823Z,92.68
2022-09-17T23:21:10.534Z,92.67
2022-09-17T23:24:18.215Z,92.58
2022-09-17T23:27:20.091Z,92.62
2022-09-17T23:30:24.264Z,92.59
2022-09-17T23:33:26.191Z,92.81
2022-09-17T23:36:30.129Z,92.99
2022-09-17T23:39:32.137Z,92.92
2022-09-17T23:42:37.066Z,92.87
2022-09-17T23:45:38.906Z,93.10
2022-09-17T23:48:41.242Z,93.17
2022-09-17T23:51:43.175Z,93.37
2022-09-17T23:54:45.144Z,93.34
2022-09-17T23:57:47.136Z,93.41
